Time;durP1;ratioP1;P1;durP2;ratioP2;P2;SDS_P1;SDS_P2;PMS_P1;PMS_P2;Temp;Humidity;BMP_temperature;BMP_pressure;BME280_temperature;BME280_humidity;BME280_pressure;Samples;Min_cycle;Max_cycle;Signal;HPM_P1;HPM_P2
2022/04/10 00:00:53;;;;;;;8.77;2.15;;;;;;;;;;4914773;29;20687;-68
2022/04/10 00:03:21;;;;;;;6.97;1.70;;;;;;;;;;4914042;29;20048;-68
2022/04/10 00:05:47;;;;;;;15.50;2.35;;;;;;;;;;4917906;29;20054;-68
2022/04/10 00:08:13;;;;;;;14.80;2.13;;;;;;;;;;4918282;29;20044;-68
2022/04/10 00:10:39;;;;;;;10.63;1.95;;;;;;;;;;4916926;29;20044;-68
2022/04/10 00:13:05;;;;;;;11.68;1.90;;;;;;;;;;4917446;29;20047;-68
2022/04/10 00:15:31;;;;;;;12.82;2.13;;;;;;;;;;4918416;29;20050;-68
2022/04/10 00:17:57;;;;;;;13.50;2.47;;;;;;;;;;4918336;29;20040;-68
2022/04/10 00:20:23;;;;;;;15.43;2.10;;;;;;;;;;4917849;29;20036;-68
2022/04/10 00:22:49;;;;;;;6.07;1.83;;;;;;;;;;4918268;29;20072;-68
2022/04/10 00:25:17;;;;;;;10.38;1.70;;;;;;;;;;4919820;29;20051;-68
2022/04/10 00:27:43;;;;;;;13.10;2.20;;;;;;;;;;4935164;29;20050;-68
2022/04/10 00:30:10;;;;;;;8.95;1.90;;;;;;;;;;4937268;29;20043;-68
2022/04/10 00:32:36;;;;;;;8.27;1.65;;;;;;;;;;4937285;29;20036;-68
2022/04/10 00:35:03;;;;;;;11.85;1.85;;;;;;;;;;4934904;29;20047;-68
2022/04/10 00:37:29;;;;;;;5.78;1.77;;;;;;;;;;4936387;29;20054;-68
2022/04/10 00:39:55;;;;;;;15.27;1.67;;;;;;;;;;4967636;28;20055;-68
2022/04/10 00:42:21;;;;;;;6.95;1.45;;;;;;;;;;4966822;28;20051;-68
2022/04/10 00:44:47;;;;;;;11.75;1.83;;;;;;;;;;4936621;29;20051;-68
2022/04/10 00:47:13;;;;;;;10.52;1.70;;;;;;;;;;4935072;29;20071;-68
2022/04/10 00:49:39;;;;;;;6.47;2.03;;;;;;;;;;4936214;29;20040;-68
2022/04/10 00:52:07;;;;;;;17.08;2.10;;;;;;;;;;4967389;28;20676;-68
2022/04/10 00:54:34;;;;;;;9.95;2.03;;;;;;;;;;4936444;29;20042;-68
2022/04/10 00:57:01;;;;;;;8.45;1.73;;;;;;;;;;4936010;29;20058;-68
2022/04/10 00:59:27;;;;;;;14.00;2.67;;;;;;;;;;4936619;29;20047;-68
2022/04/10 01:01:53;;;;;;;10.50;1.92;;;;;;;;;;4936260;29;20087;-68
2022/04/10 01:04:19;;;;;;;7.53;1.85;;;;;;;;;;4935998;29;20075;-68
2022/04/10 01:06:48;;;;;;;7.53;2.08;;;;;;;;;;4936236;29;20127;-68
2022/04/10 01:09:15;;;;;;;9.73;2.13;;;;;;;;;;4967091;28;20122;-68
2022/04/10 01:11:41;;;;;;;12.50;2.55;;;;;;;;;;4934266;29;20056;-68
2022/04/10 01:14:12;;;;;;;12.32;1.92;;;;;;;;;;4967004;28;20044;-68
2022/04/10 01:16:38;;;;;;;12.57;2.28;;;;;;;;;;4966041;28;20073;-68
2022/04/10 01:19:05;;;;;;;13.30;2.33;;;;;;;;;;4934443;29;20495;-68
2022/04/10 01:21:38;;;;;;;12.55;1.88;;;;;;;;;;4936289;29;20097;-68
2022/04/10 01:24:05;;;;;;;10.30;1.88;;;;;;;;;;4936151;29;20079;-68
2022/04/10 01:26:31;;;;;;;11.13;3.80;;;;;;;;;;4957431;28;20073;-68
2022/04/10 01:28:58;;;;;;;15.95;2.53;;;;;;;;;;4935813;29;20098;-68
2022/04/10 01:31:24;;;;;;;16.25;3.17;;;;;;;;;;4934727;29;20044;-68
2022/04/10 01:33:50;;;;;;;17.60;3.70;;;;;;;;;;4935330;29;20126;-68
2022/04/10 01:36:17;;;;;;;14.45;2.30;;;;;;;;;;4935890;29;20044;-68
2022/04/10 01:38:45;;;;;;;14.50;2.55;;;;;;;;;;4935643;29;20046;-68
2022/04/10 01:41:14;;;;;;;13.45;3.40;;;;;;;;;;4935331;29;20040;-68
2022/04/10 01:43:47;;;;;;;12.90;2.53;;;;;;;;;;4934431;29;20047;-68
2022/04/10 01:46:13;;;;;;;18.60;2.50;;;;;;;;;;4934243;29;20048;-67
2022/04/10 01:48:39;;;;;;;15.57;3.13;;;;;;;;;;4933713;29;20051;-67
2022/04/10 01:51:06;;;;;;;7.78;3.05;;;;;;;;;;4934220;29;20122;-67
2022/04/10 01:53:32;;;;;;;9.02;2.60;;;;;;;;;;4934202;29;20403;-67
2022/04/10 01:55:58;;;;;;;16.90;3.10;;;;;;;;;;4933692;29;20134;-67
2022/04/10 01:58:24;;;;;;;13.30;2.30;;;;;;;;;;4935394;29;20043;-67
2022/04/10 02:00:50;;;;;;;17.27;2.88;;;;;;;;;;4933806;29;20842;-67
2022/04/10 02:03:16;;;;;;;13.40;2.67;;;;;;;;;;4934460;29;20047;-67
2022/04/10 02:05:42;;;;;;;14.18;2.45;;;;;;;;;;4933920;29;20047;-67
2022/04/10 02:08:09;;;;;;;16.48;2.60;;;;;;;;;;4933700;29;20040;-67
2022/04/10 02:10:35;;;;;;;14.93;2.50;;;;;;;;;;4933338;29;20044;-67
2022/04/10 02:13:01;;;;;;;13.35;2.05;;;;;;;;;;4933901;29;20139;-67
2022/04/10 02:15:27;;;;;;;15.35;2.88;;;;;;;;;;4933714;29;20115;-67
2022/04/10 02:17:53;;;;;;;16.58;2.67;;;;;;;;;;4932923;29;20419;-67
2022/04/10 02:20:19;;;;;;;9.65;2.40;;;;;;;;;;4935143;29;20095;-67
2022/04/10 02:22:45;;;;;;;12.75;2.45;;;;;;;;;;4935109;29;20415;-67
2022/04/10 02:25:11;;;;;;;11.48;2.03;;;;;;;;;;4932827;29;20158;-67
2022/04/10 02:27:37;;;;;;;12.85;2.72;;;;;;;;;;4965318;28;20083;-67
2022/04/10 02:30:04;;;;;;;11.05;2.35;;;;;;;;;;4934925;29;20044;-68
2022/04/10 02:32:30;;;;;;;12.77;3.08;;;;;;;;;;4934135;29;20134;-68
2022/04/10 02:34:56;;;;;;;14.27;2.58;;;;;;;;;;4935057;29;20039;-68
2022/04/10 02:37:22;;;;;;;12.35;2.20;;;;;;;;;;4934519;29;20098;-68
2022/04/10 02:39:48;;;;;;;14.68;2.28;;;;;;;;;;4964905;28;20048;-68
2022/04/10 02:42:14;;;;;;;16.23;3.15;;;;;;;;;;4965496;28;20071;-68
2022/04/10 02:44:41;;;;;;;11.27;2.28;;;;;;;;;;4965716;28;20052;-68
2022/04/10 02:47:07;;;;;;;16.40;2.75;;;;;;;;;;4964450;28;20048;-68
2022/04/10 02:49:33;;;;;;;12.02;2.38;;;;;;;;;;4934759;29;20086;-68
2022/04/10 02:51:59;;;;;;;12.18;1.88;;;;;;;;;;4934580;29;20040;-68
2022/04/10 02:54:25;;;;;;;11.75;2.17;;;;;;;;;;4933368;29;20043;-68
2022/04/10 02:56:51;;;;;;;8.60;2.08;;;;;;;;;;4934313;29;20054;-67
2022/04/10 02:59:17;;;;;;;13.50;1.90;;;;;;;;;;4934501;29;20052;-67
2022/04/10 03:01:43;;;;;;;14.88;2.50;;;;;;;;;;4934087;29;20059;-67
2022/04/10 03:04:09;;;;;;;16.63;2.55;;;;;;;;;;4933984;29;20051;-67
2022/04/10 03:06:35;;;;;;;16.08;2.30;;;;;;;;;;4964674;28;20039;-67
2022/04/10 03:09:02;;;;;;;11.13;2.00;;;;;;;;;;4934632;29;20031;-67
2022/04/10 03:11:28;;;;;;;6.63;1.98;;;;;;;;;;4933626;29;20048;-67
2022/04/10 03:13:54;;;;;;;10.75;1.90;;;;;;;;;;4934495;29;20040;-67
2022/04/10 03:16:20;;;;;;;10.18;2.15;;;;;;;;;;4933028;29;20055;-67
2022/04/10 03:18:46;;;;;;;11.20;2.60;;;;;;;;;;4964196;28;20047;-67
2022/04/10 03:21:12;;;;;;;13.65;2.45;;;;;;;;;;4934489;29;20442;-67
2022/04/10 03:23:38;;;;;;;13.43;2.70;;;;;;;;;;4965217;28;20056;-67
2022/04/10 03:26:04;;;;;;;10.40;2.45;;;;;;;;;;4925475;29;20402;-67
2022/04/10 03:28:30;;;;;;;12.43;2.17;;;;;;;;;;4915275;29;20107;-67
2022/04/10 03:30:59;;;;;;;14.32;2.03;;;;;;;;;;4914156;29;20039;-67
2022/04/10 03:33:25;;;;;;;15.15;2.85;;;;;;;;;;4913192;29;20411;-67
2022/04/10 03:35:52;;;;;;;12.30;2.10;;;;;;;;;;4913625;29;20403;-67
2022/04/10 03:38:18;;;;;;;10.20;3.22;;;;;;;;;;4913767;29;20119;-67
2022/04/10 03:40:44;;;;;;;12.68;2.40;;;;;;;;;;4918382;29;20044;-67
2022/04/10 03:43:11;;;;;;;12.32;2.17;;;;;;;;;;4917728;29;20044;-67
2022/04/10 03:45:38;;;;;;;10.57;2.30;;;;;;;;;;4917341;29;20051;-67
2022/04/10 03:48:04;;;;;;;10.88;1.95;;;;;;;;;;4918281;29;20092;-67
2022/04/10 03:50:31;;;;;;;6.50;1.63;;;;;;;;;;4918953;29;20119;-67
2022/04/10 03:52:57;;;;;;;4.53;1.67;;;;;;;;;;4917326;29;20044;-67
2022/04/10 03:55:23;;;;;;;5.18;1.15;;;;;;;;;;4917806;29;20039;-67
2022/04/10 03:57:49;;;;;;;5.38;1.20;;;;;;;;;;4917218;29;20055;-67
2022/04/10 04:00:15;;;;;;;8.68;1.80;;;;;;;;;;4916956;29;20060;-67
2022/04/10 04:02:42;;;;;;;5.03;1.30;;;;;;;;;;4916466;29;20061;-67
2022/04/10 04:05:09;;;;;;;5.53;1.27;;;;;;;;;;4918315;29;20420;-67
2022/04/10 04:07:36;;;;;;;7.85;1.90;;;;;;;;;;4918357;29;20518;-67
2022/04/10 04:10:02;;;;;;;6.18;1.20;;;;;;;;;;4916656;29;20048;-67
2022/04/10 04:12:28;;;;;;;6.68;1.50;;;;;;;;;;4918581;29;20498;-67
2022/04/10 04:14:54;;;;;;;4.72;1.30;;;;;;;;;;4917069;29;20040;-67
2022/04/10 04:17:20;;;;;;;3.75;0.90;;;;;;;;;;4917649;29;20561;-67
2022/04/10 04:19:49;;;;;;;7.38;1.23;;;;;;;;;;4918053;29;20047;-67
2022/04/10 04:22:16;;;;;;;5.25;1.27;;;;;;;;;;4916919;29;20048;-68
2022/04/10 04:24:42;;;;;;;3.38;1.05;;;;;;;;;;4917782;29;20088;-68
2022/04/10 04:27:08;;;;;;;5.40;1.15;;;;;;;;;;4934275;29;20055;-68
2022/04/10 04:29:34;;;;;;;3.38;1.13;;;;;;;;;;4968096;28;20544;-68
2022/04/10 04:32:01;;;;;;;8.55;1.60;;;;;;;;;;4936275;29;20036;-68
2022/04/10 04:34:27;;;;;;;5.00;1.15;;;;;;;;;;4967836;28;20063;-68
2022/04/10 04:36:53;;;;;;;4.95;1.38;;;;;;;;;;4936925;29;20495;-68
2022/04/10 04:39:19;;;;;;;5.78;1.05;;;;;;;;;;4966989;28;20040;-68
2022/04/10 04:41:46;;;;;;;4.80;1.23;;;;;;;;;;4967763;28;20043;-68
2022/04/10 04:44:12;;;;;;;7.25;1.10;;;;;;;;;;4936762;29;20146;-68
2022/04/10 04:46:38;;;;;;;8.20;1.88;;;;;;;;;;4934371;29;20052;-68
2022/04/10 04:49:04;;;;;;;8.10;1.25;;;;;;;;;;4967350;28;20040;-68
2022/04/10 04:51:34;;;;;;;3.95;1.02;;;;;;;;;;4966163;28;20050;-68
2022/04/10 04:54:04;;;;;;;4.45;1.05;;;;;;;;;;4934953;29;20530;-68
2022/04/10 04:56:31;;;;;;;5.55;1.38;;;;;;;;;;4936635;29;20095;-68
2022/04/10 04:58:57;;;;;;;9.10;1.50;;;;;;;;;;4936633;29;20139;-68
2022/04/10 05:01:23;;;;;;;3.47;1.23;;;;;;;;;;4935451;29;20059;-68
2022/04/10 05:03:49;;;;;;;4.88;1.17;;;;;;;;;;4936466;29;20118;-68
2022/04/10 05:06:15;;;;;;;10.82;1.45;;;;;;;;;;4966871;28;20647;-68
2022/04/10 05:08:41;;;;;;;6.57;1.75;;;;;;;;;;4935562;29;20095;-68
2022/04/10 05:11:09;;;;;;;7.30;1.30;;;;;;;;;;4966894;28;20036;-68
2022/04/10 05:13:35;;;;;;;4.53;1.40;;;;;;;;;;4936237;29;20051;-68
2022/04/10 05:16:01;;;;;;;8.45;2.75;;;;;;;;;;4935632;29;20099;-68
2022/04/10 05:18:27;;;;;;;6.78;2.55;;;;;;;;;;4936149;29;20054;-68
2022/04/10 05:20:53;;;;;;;10.25;3.70;;;;;;;;;;4934955;29;20551;-68
2022/04/10 05:23:20;;;;;;;10.90;2.47;;;;;;;;;;4965999;28;20126;-68
2022/04/10 05:25:48;;;;;;;7.40;1.98;;;;;;;;;;4930393;29;20111;-68
2022/04/10 05:28:14;;;;;;;8.52;2.00;;;;;;;;;;4916912;29;20043;-68
2022/04/10 05:30:41;;;;;;;7.47;2.38;;;;;;;;;;4915141;29;20686;-68
2022/04/10 05:33:07;;;;;;;7.38;1.98;;;;;;;;;;4915811;29;20048;-68
2022/04/10 05:35:33;;;;;;;5.40;1.90;;;;;;;;;;4917017;29;20044;-68
2022/04/10 05:37:59;;;;;;;5.57;1.60;;;;;;;;;;4916103;29;20048;-68
2022/04/10 05:40:26;;;;;;;4.97;1.58;;;;;;;;;;4916641;29;20036;-68
2022/04/10 05:42:52;;;;;;;5.47;1.30;;;;;;;;;;4915465;29;20056;-68
2022/04/10 05:45:18;;;;;;;7.05;1.70;;;;;;;;;;4915996;29;20131;-68
2022/04/10 05:47:44;;;;;;;9.02;1.80;;;;;;;;;;4915072;29;20097;-68
2022/04/10 05:50:11;;;;;;;9.38;1.65;;;;;;;;;;4915325;29;20060;-68
2022/04/10 05:52:43;;;;;;;4.72;1.60;;;;;;;;;;4915906;29;20263;-68
2022/04/10 05:55:10;;;;;;;7.30;1.52;;;;;;;;;;4915249;29;20043;-68
2022/04/10 05:57:36;;;;;;;6.35;1.20;;;;;;;;;;4915158;29;20040;-68
2022/04/10 06:00:05;;;;;;;6.25;1.35;;;;;;;;;;4915769;29;20075;-68
2022/04/10 06:02:31;;;;;;;4.00;1.10;;;;;;;;;;4916180;29;20056;-68
2022/04/10 06:04:57;;;;;;;6.18;1.27;;;;;;;;;;4916187;29;20088;-68
2022/04/10 06:07:23;;;;;;;7.97;1.92;;;;;;;;;;4915516;29;20040;-68
2022/04/10 06:09:50;;;;;;;3.00;1.20;;;;;;;;;;4914898;29;20051;-68
2022/04/10 06:12:16;;;;;;;11.52;2.03;;;;;;;;;;4916364;29;20036;-68
2022/04/10 06:14:42;;;;;;;8.95;1.52;;;;;;;;;;4915790;29;20129;-68
2022/04/10 06:17:08;;;;;;;8.38;1.40;;;;;;;;;;4914790;29;20060;-68
2022/04/10 06:19:34;;;;;;;6.13;1.60;;;;;;;;;;4914887;29;20052;-68
2022/04/10 06:22:01;;;;;;;6.30;1.30;;;;;;;;;;4915734;29;20792;-68
2022/04/10 06:24:27;;;;;;;8.15;1.48;;;;;;;;;;4915064;29;20052;-68
2022/04/10 06:26:56;;;;;;;4.43;1.30;;;;;;;;;;4928787;29;20051;-68
2022/04/10 06:29:22;;;;;;;7.40;1.30;;;;;;;;;;4934422;29;20138;-68
2022/04/10 06:31:48;;;;;;;2.60;1.00;;;;;;;;;;4933676;29;20439;-68
2022/04/10 06:34:15;;;;;;;6.45;1.23;;;;;;;;;;4933391;29;20376;-68
2022/04/10 06:36:41;;;;;;;8.30;1.77;;;;;;;;;;4964916;28;20051;-68
2022/04/10 06:39:07;;;;;;;7.43;1.50;;;;;;;;;;4934844;29;20048;-68
2022/04/10 06:41:33;;;;;;;8.02;1.40;;;;;;;;;;4965671;28;20062;-68
2022/04/10 06:43:59;;;;;;;5.82;1.33;;;;;;;;;;4964790;28;20051;-68
2022/04/10 06:46:26;;;;;;;5.20;1.40;;;;;;;;;;4934655;29;20051;-68
2022/04/10 06:48:53;;;;;;;8.63;1.42;;;;;;;;;;4934564;29;20434;-68
2022/04/10 06:51:19;;;;;;;5.53;1.40;;;;;;;;;;4932545;29;20537;-68
2022/04/10 06:53:46;;;;;;;5.10;1.23;;;;;;;;;;4934417;29;20079;-68
2022/04/10 06:56:12;;;;;;;3.10;1.02;;;;;;;;;;4934548;29;20060;-68
2022/04/10 06:58:38;;;;;;;3.92;1.20;;;;;;;;;;4964670;28;20048;-68
2022/04/10 07:01:04;;;;;;;6.13;1.35;;;;;;;;;;4964572;28;20094;-68
2022/04/10 07:03:30;;;;;;;6.93;1.55;;;;;;;;;;4933117;29;20142;-68
2022/04/10 07:05:56;;;;;;;4.70;1.35;;;;;;;;;;4934372;29;20637;-68
2022/04/10 07:08:22;;;;;;;5.15;1.33;;;;;;;;;;4964141;28;20130;-68
2022/04/10 07:10:48;;;;;;;6.70;1.10;;;;;;;;;;4934465;29;20043;-68
2022/04/10 07:13:17;;;;;;;12.30;1.38;;;;;;;;;;4933777;29;20463;-68
2022/04/10 07:15:44;;;;;;;8.43;1.70;;;;;;;;;;4933556;29;20705;-68
2022/04/10 07:18:10;;;;;;;8.07;1.20;;;;;;;;;;4933049;29;20114;-68
2022/04/10 07:20:36;;;;;;;7.75;1.33;;;;;;;;;;4934355;29;20472;-68
2022/04/10 07:25:47;;;;;;;5.72;1.15;;;;;;;;;;4962237;28;20131;-68
2022/04/10 07:28:13;;;;;;;7.20;1.73;;;;;;;;;;4933724;29;20106;-68
2022/04/10 07:30:39;;;;;;;7.20;1.88;;;;;;;;;;4932385;29;20040;-68
2022/04/10 07:33:06;;;;;;;10.60;1.60;;;;;;;;;;4934227;29;20395;-68
2022/04/10 07:35:34;;;;;;;13.73;1.77;;;;;;;;;;4917301;29;20043;-68
2022/04/10 07:38:00;;;;;;;7.43;1.42;;;;;;;;;;4932049;29;20051;-68
2022/04/10 07:40:26;;;;;;;8.40;1.73;;;;;;;;;;4934249;29;20047;-68
2022/04/10 07:42:53;;;;;;;5.57;1.42;;;;;;;;;;4934256;29;20487;-68
2022/04/10 07:48:04;;;;;;;5.93;1.60;;;;;;;;;;4933904;29;20138;-68
2022/04/10 07:50:30;;;;;;;11.27;1.75;;;;;;;;;;4932026;29;20059;-68
2022/04/10 07:52:56;;;;;;;5.95;1.27;;;;;;;;;;4933767;29;20162;-68
2022/04/10 07:55:23;;;;;;;7.10;1.10;;;;;;;;;;4933855;29;20111;-68
2022/04/10 07:57:49;;;;;;;10.50;1.40;;;;;;;;;;4933672;29;20074;-68
2022/04/10 08:00:17;;;;;;;7.60;2.33;;;;;;;;;;4933242;29;20092;-68
2022/04/10 08:02:46;;;;;;;11.25;1.33;;;;;;;;;;4933758;29;20047;-68
2022/04/10 08:05:13;;;;;;;10.75;1.92;;;;;;;;;;4933951;29;20040;-68
2022/04/10 08:07:39;;;;;;;13.70;1.90;;;;;;;;;;4931968;29;20126;-68
2022/04/10 08:10:05;;;;;;;7.93;1.30;;;;;;;;;;4934022;29;20036;-68
2022/04/10 08:12:31;;;;;;;7.20;1.60;;;;;;;;;;4932447;29;20071;-68
2022/04/10 08:14:57;;;;;;;11.27;1.60;;;;;;;;;;4932043;29;20051;-68
2022/04/10 08:17:24;;;;;;;7.85;1.65;;;;;;;;;;4933849;29;20074;-68
2022/04/10 08:19:50;;;;;;;8.07;1.70;;;;;;;;;;4933756;29;20042;-68
2022/04/10 08:22:23;;;;;;;6.32;1.55;;;;;;;;;;4932062;29;20066;-68
2022/04/10 08:24:49;;;;;;;10.88;1.73;;;;;;;;;;4933152;29;20111;-68
2022/04/10 08:27:15;;;;;;;8.30;1.67;;;;;;;;;;4935482;29;20059;-68
2022/04/10 08:29:41;;;;;;;8.85;1.50;;;;;;;;;;4936550;29;20044;-68
2022/04/10 08:32:07;;;;;;;10.13;2.00;;;;;;;;;;4937270;29;20071;-68
2022/04/10 08:34:33;;;;;;;8.38;1.60;;;;;;;;;;4937001;29;20103;-68
2022/04/10 08:37:05;;;;;;;12.40;2.28;;;;;;;;;;4936352;29;20118;-68
2022/04/10 08:39:34;;;;;;;9.40;1.45;;;;;;;;;;4937012;29;20055;-68
2022/04/10 08:42:05;;;;;;;8.20;1.90;;;;;;;;;;4936664;29;20052;-68
2022/04/10 08:44:31;;;;;;;9.18;1.70;;;;;;;;;;4936019;29;20044;-68
2022/04/10 08:47:01;;;;;;;11.88;1.63;;;;;;;;;;4951343;28;20056;-68
2022/04/10 08:49:31;;;;;;;7.45;1.73;;;;;;;;;;4936531;29;20472;-68
2022/04/10 08:51:58;;;;;;;6.80;1.65;;;;;;;;;;4934918;29;20053;-68
2022/04/10 08:54:25;;;;;;;10.57;1.85;;;;;;;;;;4936671;29;20047;-68
2022/04/10 08:56:51;;;;;;;7.82;1.75;;;;;;;;;;4936559;29;20039;-68
2022/04/10 08:59:21;;;;;;;13.20;2.17;;;;;;;;;;4935975;29;20051;-68
2022/04/10 09:01:53;;;;;;;9.63;1.90;;;;;;;;;;4967154;28;20079;-68
2022/04/10 09:04:20;;;;;;;10.15;1.83;;;;;;;;;;4935327;29;20131;-68
2022/04/10 09:06:57;;;;;;;7.72;1.73;;;;;;;;;;4966450;28;20044;-68
2022/04/10 09:09:23;;;;;;;6.43;1.90;;;;;;;;;;4935085;29;20047;-68
2022/04/10 09:11:51;;;;;;;11.70;2.13;;;;;;;;;;4967081;28;20047;-68
2022/04/10 09:14:21;;;;;;;11.07;1.92;;;;;;;;;;4936230;29;20051;-68
2022/04/10 09:16:47;;;;;;;11.77;1.52;;;;;;;;;;4936253;29;20044;-68
2022/04/10 09:19:13;;;;;;;12.10;2.42;;;;;;;;;;4935901;29;20050;-68
2022/04/10 09:21:40;;;;;;;6.22;1.50;;;;;;;;;;4966681;28;20722;-68
2022/04/10 09:24:10;;;;;;;7.55;1.30;;;;;;;;;;4967049;28;20055;-68
2022/04/10 09:26:54;;;;;;;12.52;1.35;;;;;;;;;;4957465;28;20127;-68
2022/04/10 09:29:21;;;;;;;8.40;1.38;;;;;;;;;;4934713;29;20056;-68
2022/04/10 09:31:47;;;;;;;8.90;1.40;;;;;;;;;;4936211;29;20068;-68
2022/04/10 09:34:17;;;;;;;6.82;1.50;;;;;;;;;;4934119;29;20044;-68
2022/04/10 09:36:45;;;;;;;3.65;1.00;;;;;;;;;;4933689;29;20048;-68
2022/04/10 09:39:13;;;;;;;7.15;1.23;;;;;;;;;;4935975;29;20043;-68
2022/04/10 09:41:40;;;;;;;9.70;1.17;;;;;;;;;;4935273;29;20046;-68
2022/04/10 09:44:16;;;;;;;6.32;1.40;;;;;;;;;;4934639;29;20123;-68
2022/04/10 09:46:43;;;;;;;7.22;1.60;;;;;;;;;;4935415;29;20122;-68
2022/04/10 09:49:13;;;;;;;6.05;1.10;;;;;;;;;;4935006;29;20740;-68
2022/04/10 09:51:57;;;;;;;9.70;1.35;;;;;;;;;;4935734;29;20047;-68
2022/04/10 09:54:23;;;;;;;8.70;1.30;;;;;;;;;;4934071;29;20048;-68
2022/04/10 09:56:50;;;;;;;9.07;1.80;;;;;;;;;;4934888;29;20107;-68
2022/04/10 09:59:17;;;;;;;5.85;1.17;;;;;;;;;;4934176;29;20471;-68
2022/04/10 10:01:43;;;;;;;11.80;1.52;;;;;;;;;;4935141;29;20094;-68
2022/04/10 10:04:11;;;;;;;6.63;1.50;;;;;;;;;;4934904;29;20059;-68
2022/04/10 10:06:38;;;;;;;8.50;1.20;;;;;;;;;;4933836;29;20124;-68
2022/04/10 10:09:04;;;;;;;3.45;1.10;;;;;;;;;;4934159;29;20086;-68
2022/04/10 10:11:30;;;;;;;9.00;1.52;;;;;;;;;;4934719;29;20537;-68
2022/04/10 10:13:57;;;;;;;5.90;1.30;;;;;;;;;;4935426;29;20442;-68
2022/04/10 10:16:23;;;;;;;6.20;1.35;;;;;;;;;;4933919;29;20053;-68
2022/04/10 10:18:49;;;;;;;7.50;1.65;;;;;;;;;;4934491;29;20083;-68
2022/04/10 10:21:15;;;;;;;9.95;1.65;;;;;;;;;;4935178;29;20062;-68
2022/04/10 10:23:43;;;;;;;4.68;1.02;;;;;;;;;;4933561;29;20143;-68
2022/04/10 10:26:09;;;;;;;5.53;1.75;;;;;;;;;;4934291;29;20103;-68
2022/04/10 10:28:48;;;;;;;8.45;1.23;;;;;;;;;;4965314;28;20047;-68
2022/04/10 10:31:18;;;;;;;7.60;1.70;;;;;;;;;;4934952;29;20471;-68
2022/04/10 10:33:52;;;;;;;8.55;1.40;;;;;;;;;;4934412;29;20043;-68
2022/04/10 10:36:26;;;;;;;9.27;1.55;;;;;;;;;;4934765;29;20055;-68
2022/04/10 10:38:52;;;;;;;4.25;1.35;;;;;;;;;;4934504;29;20047;-68
2022/04/10 10:41:18;;;;;;;7.80;1.35;;;;;;;;;;4934057;29;20083;-68
2022/04/10 10:43:48;;;;;;;6.57;1.30;;;;;;;;;;4934798;29;20047;-68
2022/04/10 10:46:34;;;;;;;7.38;1.08;;;;;;;;;;4965112;28;20423;-68
2022/04/10 10:49:14;;;;;;;9.57;1.27;;;;;;;;;;4933025;29;20047;-68
2022/04/10 10:51:46;;;;;;;13.23;1.52;;;;;;;;;;4933165;29;20079;-68
2022/04/10 10:54:13;;;;;;;9.02;1.20;;;;;;;;;;4965065;28;20086;-68
2022/04/10 10:56:40;;;;;;;7.95;1.40;;;;;;;;;;4933684;29;20048;-68
2022/04/10 10:59:20;;;;;;;5.05;1.13;;;;;;;;;;4934342;29;20087;-68
2022/04/10 11:01:52;;;;;;;6.00;1.10;;;;;;;;;;4934212;29;20414;-68
2022/04/10 11:04:20;;;;;;;7.18;1.30;;;;;;;;;;4933919;29;20054;-68
2022/04/10 11:06:50;;;;;;;5.05;1.30;;;;;;;;;;4934064;29;20044;-68
2022/04/10 11:09:24;;;;;;;5.07;1.30;;;;;;;;;;4934593;29;20090;-68
2022/04/10 11:11:51;;;;;;;5.07;1.13;;;;;;;;;;4933545;29;20529;-68
2022/04/10 11:14:36;;;;;;;10.02;1.60;;;;;;;;;;4934197;29;20044;-68
2022/04/10 11:17:09;;;;;;;4.15;1.10;;;;;;;;;;4934172;29;20055;-68
2022/04/10 11:19:36;;;;;;;6.88;1.17;;;;;;;;;;4932174;29;20414;-68
2022/04/10 11:22:03;;;;;;;4.32;0.98;;;;;;;;;;4934221;29;20058;-68
2022/04/10 11:24:29;;;;;;;5.00;1.00;;;;;;;;;;4934304;29;20078;-68
2022/04/10 11:26:55;;;;;;;7.28;1.27;;;;;;;;;;4918697;29;20063;-68
2022/04/10 11:29:21;;;;;;;7.18;1.13;;;;;;;;;;4915329;29;20040;-68
2022/04/10 11:31:52;;;;;;;4.53;1.23;;;;;;;;;;4913920;29;20048;-68
2022/04/10 11:34:28;;;;;;;4.25;1.35;;;;;;;;;;4914572;29;20484;-68
2022/04/10 11:36:59;;;;;;;11.55;1.52;;;;;;;;;;4915165;29;20106;-68
2022/04/10 11:39:35;;;;;;;4.45;1.10;;;;;;;;;;4898056;29;20391;-68
2022/04/10 11:42:02;;;;;;;4.25;0.90;;;;;;;;;;4913240;29;20052;-68
2022/04/10 11:44:29;;;;;;;8.07;1.10;;;;;;;;;;4913793;29;20143;-68
2022/04/10 11:46:55;;;;;;;6.43;1.30;;;;;;;;;;4913543;29;20056;-68
2022/04/10 11:49:21;;;;;;;3.25;0.88;;;;;;;;;;4913209;29;20152;-68
2022/04/10 11:51:57;;;;;;;5.68;1.20;;;;;;;;;;4915103;29;20044;-68
2022/04/10 11:54:26;;;;;;;7.38;1.25;;;;;;;;;;4915224;29;20521;-68
2022/04/10 11:56:52;;;;;;;7.22;1.20;;;;;;;;;;4914113;29;20054;-68
2022/04/10 11:59:20;;;;;;;4.65;1.10;;;;;;;;;;4913743;29;20058;-68
2022/04/10 12:01:46;;;;;;;3.80;1.00;;;;;;;;;;4917842;29;20087;-68
2022/04/10 12:04:12;;;;;;;6.90;1.17;;;;;;;;;;4916647;29;20048;-68
2022/04/10 12:06:38;;;;;;;8.90;1.20;;;;;;;;;;4915829;29;20054;-68
2022/04/10 12:09:04;;;;;;;6.72;1.20;;;;;;;;;;4917095;29;20039;-68
2022/04/10 12:11:43;;;;;;;5.35;1.15;;;;;;;;;;4916578;29;20036;-68
2022/04/10 12:14:22;;;;;;;3.83;1.10;;;;;;;;;;4917664;29;20071;-68
2022/04/10 12:16:49;;;;;;;6.65;1.30;;;;;;;;;;4915659;29;20060;-68
2022/04/10 12:19:15;;;;;;;3.63;0.80;;;;;;;;;;4916436;29;20665;-68
2022/04/10 12:21:49;;;;;;;3.90;1.35;;;;;;;;;;4918338;29;20143;-69
2022/04/10 12:24:20;;;;;;;5.78;1.15;;;;;;;;;;4916413;29;20058;-69
2022/04/10 12:26:46;;;;;;;4.95;1.10;;;;;;;;;;4929882;29;20159;-69
2022/04/10 12:29:12;;;;;;;3.45;0.93;;;;;;;;;;4934305;29;20043;-69
2022/04/10 12:31:41;;;;;;;3.53;0.80;;;;;;;;;;4935885;29;20483;-69
2022/04/10 12:34:09;;;;;;;3.00;1.00;;;;;;;;;;4934611;29;20458;-69
2022/04/10 12:36:44;;;;;;;5.40;1.02;;;;;;;;;;4966318;28;20055;-69
2022/04/10 12:39:10;;;;;;;5.35;1.02;;;;;;;;;;4935307;29;20376;-69
2022/04/10 12:41:36;;;;;;;6.28;1.23;;;;;;;;;;4935923;29;20080;-69
2022/04/10 12:44:05;;;;;;;4.20;0.77;;;;;;;;;;4950256;29;20455;-69
2022/04/10 12:46:35;;;;;;;5.30;1.17;;;;;;;;;;4965748;28;20047;-69
2022/04/10 12:49:27;;;;;;;3.83;1.00;;;;;;;;;;4934316;29;20047;-69
2022/04/10 12:51:59;;;;;;;5.20;1.23;;;;;;;;;;4964153;28;20127;-69
2022/04/10 12:54:25;;;;;;;;;;;;;;;;;;4934188;29;20394;-69
2022/04/10 12:56:53;;;;;;;5.30;1.13;;;;;;;;;;4933933;29;19922;-69
2022/04/10 12:59:19;;;;;;;6.10;1.20;;;;;;;;;;4934023;29;20051;-69
2022/04/10 13:01:51;;;;;;;4.25;0.82;;;;;;;;;;4933262;29;20139;-69
2022/04/10 13:04:27;;;;;;;4.13;0.80;;;;;;;;;;4935417;29;20051;-69
2022/04/10 13:06:53;;;;;;;5.40;1.00;;;;;;;;;;4965726;28;20040;-69
2022/04/10 13:09:19;;;;;;;4.25;0.85;;;;;;;;;;4965237;28;20040;-69
2022/04/10 13:11:45;;;;;;;2.85;0.88;;;;;;;;;;4964923;28;20403;-69
2022/04/10 13:14:13;;;;;;;3.70;0.90;;;;;;;;;;4965692;28;20048;-69
2022/04/10 13:16:40;;;;;;;4.60;0.90;;;;;;;;;;4964825;28;20399;-69
2022/04/10 13:19:16;;;;;;;4.15;0.80;;;;;;;;;;4966157;28;20509;-69
2022/04/10 13:21:43;;;;;;;5.68;0.88;;;;;;;;;;4934835;29;20058;-69
2022/04/10 13:24:09;;;;;;;2.92;0.80;;;;;;;;;;4964808;28;20040;-69
2022/04/10 13:26:36;;;;;;;2.20;0.90;;;;;;;;;;4956297;28;20103;-69
2022/04/10 13:29:04;;;;;;;5.57;1.00;;;;;;;;;;4933559;29;20588;-69
2022/04/10 13:31:30;;;;;;;3.42;0.90;;;;;;;;;;4934352;29;20051;-69
2022/04/10 13:33:56;;;;;;;5.65;1.00;;;;;;;;;;4934468;29;20052;-69
2022/04/10 13:36:22;;;;;;;4.32;1.08;;;;;;;;;;4933515;29;20052;-69
2022/04/10 13:38:48;;;;;;;5.40;1.13;;;;;;;;;;4932602;29;20111;-69
2022/04/10 13:41:15;;;;;;;3.63;0.75;;;;;;;;;;4933244;29;20047;-69
2022/04/10 13:43:41;;;;;;;6.60;1.00;;;;;;;;;;4934601;29;20366;-69
2022/04/10 13:46:07;;;;;;;4.82;1.00;;;;;;;;;;4932784;29;20563;-69
2022/04/10 13:48:33;;;;;;;6.85;1.15;;;;;;;;;;4932878;29;20043;-69
2022/04/10 13:50:59;;;;;;;3.80;0.95;;;;;;;;;;4933127;29;20050;-69
2022/04/10 13:53:25;;;;;;;4.20;0.98;;;;;;;;;;4933781;29;20043;-69
2022/04/10 13:55:51;;;;;;;1.95;0.82;;;;;;;;;;4933236;29;20364;-69
2022/04/10 13:58:17;;;;;;;3.33;0.90;;;;;;;;;;4933997;29;20051;-69
2022/04/10 14:00:43;;;;;;;5.28;1.08;;;;;;;;;;4932007;29;20455;-69
2022/04/10 14:03:09;;;;;;;5.60;1.00;;;;;;;;;;4932533;29;20510;-69
2022/04/10 14:05:36;;;;;;;3.72;1.10;;;;;;;;;;4933953;29;20047;-69
2022/04/10 14:08:03;;;;;;;4.80;1.08;;;;;;;;;;4931757;29;20044;-69
2022/04/10 14:10:30;;;;;;;5.70;1.13;;;;;;;;;;4933865;29;20102;-69
2022/04/10 14:12:56;;;;;;;2.75;1.00;;;;;;;;;;4934236;29;20035;-69
2022/04/10 14:15:22;;;;;;;2.38;0.63;;;;;;;;;;4933443;29;20047;-69
2022/04/10 14:17:50;;;;;;;6.43;1.02;;;;;;;;;;4916837;29;20055;-69
2022/04/10 14:20:16;;;;;;;5.10;0.95;;;;;;;;;;4932568;29;20701;-69
2022/04/10 14:22:42;;;;;;;2.28;0.90;;;;;;;;;;4916101;29;20039;-69
2022/04/10 14:25:08;;;;;;;3.10;0.90;;;;;;;;;;4931932;29;20055;-69
2022/04/10 14:27:34;;;;;;;7.55;1.15;;;;;;;;;;4963884;28;20498;-70
2022/04/10 14:30:00;;;;;;;4.43;0.85;;;;;;;;;;4933770;29;20054;-70
2022/04/10 14:32:26;;;;;;;7.75;1.23;;;;;;;;;;4931973;29;20118;-70
2022/04/10 14:34:52;;;;;;;4.22;1.10;;;;;;;;;;4964168;28;20062;-70
2022/04/10 14:37:18;;;;;;;5.30;1.00;;;;;;;;;;4948269;28;20051;-70
2022/04/10 14:39:44;;;;;;;5.47;1.00;;;;;;;;;;4963423;28;20046;-70
2022/04/10 14:42:10;;;;;;;3.75;0.90;;;;;;;;;;4933630;29;20043;-70
2022/04/10 14:44:36;;;;;;;3.65;0.90;;;;;;;;;;4964343;28;20647;-70